Time;durP1;ratioP1;P1;durP2;ratioP2;P2;SDS_P1;SDS_P2;PMS_P1;PMS_P2;Temp;Humidity;BMP_temperature;BMP_pressure;BME280_temperature;BME280_humidity;BME280_pressure;Samples;Min_cycle;Max_cycle;Signal;HPM_P1;HPM_P2
2023/10/30 00:00:22;;;;;;;11.50;3.30;;;;;;;13.17;100.00;98900.81;6089989;23;20115;-87
2023/10/30 00:02:49;;;;;;;14.43;3.33;;;;;;;13.17;100.00;98884.81;6090411;23;20094;-87
2023/10/30 00:05:16;;;;;;;8.15;1.92;;;;;;;13.18;100.00;98896.34;6066440;23;20599;-86
2023/10/30 00:07:43;;;;;;;6.20;2.13;;;;;;;13.19;100.00;98908.63;6065830;23;20029;-86
2023/10/30 00:10:10;;;;;;;7.70;2.20;;;;;;;13.15;100.00;98909.97;6089680;23;20048;-87
2023/10/30 00:12:38;;;;;;;8.18;2.00;;;;;;;13.15;100.00;98902.84;6139619;23;20475;-86
2023/10/30 00:15:06;;;;;;;6.00;2.67;;;;;;;13.17;100.00;98902.66;6089569;23;20044;-87
2023/10/30 00:17:32;;;;;;;5.07;2.47;;;;;;;13.17;100.00;98897.31;6114881;23;20017;-87
2023/10/30 00:19:59;;;;;;;3.03;1.77;;;;;;;13.16;100.00;98895.66;6113833;23;20029;-87
2023/10/30 00:22:26;;;;;;;6.82;1.50;;;;;;;13.16;100.00;98915.16;6090112;23;20029;-86
2023/10/30 00:24:53;;;;;;;4.15;1.30;;;;;;;13.16;100.00;98917.00;6066213;23;20042;-87
2023/10/30 00:27:20;;;;;;;3.88;1.77;;;;;;;13.14;100.00;98917.16;6042446;23;20029;-86
2023/10/30 00:29:48;;;;;;;4.50;1.70;;;;;;;13.15;100.00;98921.50;6103776;23;20022;-87
2023/10/30 00:32:15;;;;;;;3.05;1.45;;;;;;;13.14;100.00;98914.50;6114647;23;20093;-88
2023/10/30 00:34:42;;;;;;;8.75;2.03;;;;;;;13.14;100.00;98925.16;6090281;23;20814;-87
2023/10/30 00:37:10;;;;;;;10.60;1.90;;;;;;;13.15;100.00;98917.97;6114552;23;20265;-86
2023/10/30 00:39:37;;;;;;;8.13;1.52;;;;;;;13.15;100.00;98933.97;6090879;23;20018;-88
2023/10/30 00:42:04;;;;;;;5.97;1.40;;;;;;;13.15;100.00;98925.97;6090165;23;20061;-87
2023/10/30 00:44:31;;;;;;;4.53;1.20;;;;;;;13.12;100.00;98903.16;6139080;23;20076;-88
2023/10/30 00:46:58;;;;;;;4.10;0.95;;;;;;;13.14;100.00;98909.16;6139254;23;20456;-87
2023/10/30 00:49:26;;;;;;;5.68;1.40;;;;;;;13.14;100.00;98922.50;6114939;23;20111;-87
2023/10/30 00:51:53;;;;;;;9.75;1.85;;;;;;;13.13;100.00;98928.84;6113933;23;20025;-88
2023/10/30 00:54:19;;;;;;;5.30;1.35;;;;;;;13.14;100.00;98943.00;6141093;23;20045;-89
2023/10/30 00:56:46;;;;;;;8.60;1.38;;;;;;;13.12;100.00;98937.00;6090502;23;20026;-87
2023/10/30 00:59:13;;;;;;;4.72;1.23;;;;;;;13.12;100.00;98943.16;6114543;23;20080;-87
2023/10/30 01:01:40;;;;;;;3.35;0.75;;;;;;;13.12;100.00;98951.16;6114687;23;20028;-87
2023/10/30 01:04:07;;;;;;;6.97;1.00;;;;;;;13.13;100.00;98958.16;6090395;23;20026;-87
2023/10/30 01:06:34;;;;;;;5.43;0.90;;;;;;;13.13;100.00;98968.81;6138812;23;20026;-87
2023/10/30 01:09:02;;;;;;;8.05;1.00;;;;;;;13.11;100.00;98949.50;6115138;23;20021;-87
2023/10/30 01:11:29;;;;;;;13.07;1.17;;;;;;;13.12;100.00;98953.81;6090867;23;20035;-88
2023/10/30 01:13:56;;;;;;;6.93;1.42;;;;;;;13.11;100.00;98944.16;6114605;23;20026;-86
2023/10/30 01:16:22;;;;;;;14.45;2.33;;;;;;;13.10;100.00;98955.00;6092393;23;20028;-86
2023/10/30 01:18:50;;;;;;;5.93;1.30;;;;;;;13.11;100.00;98951.34;6089422;23;20025;-86
2023/10/30 01:21:17;;;;;;;5.25;0.98;;;;;;;13.09;100.00;98958.66;6113862;23;20029;-87
2023/10/30 01:23:44;;;;;;;4.07;1.15;;;;;;;13.10;100.00;98960.31;6089742;23;20097;-87
2023/10/30 01:26:11;;;;;;;7.65;1.45;;;;;;;13.09;100.00;98950.69;6138538;23;20029;-88
2023/10/30 01:28:37;;;;;;;7.50;1.00;;;;;;;13.10;100.00;98947.84;6137991;23;20014;-87
2023/10/30 01:31:04;;;;;;;3.25;0.80;;;;;;;13.08;100.00;98941.84;6115515;23;20025;-86
2023/10/30 01:33:32;;;;;;;4.25;1.00;;;;;;;13.10;100.00;98945.19;6091633;23;20141;-86
2023/10/30 01:36:01;;;;;;;4.00;1.08;;;;;;;13.09;100.00;98940.00;6092134;23;20029;-86
2023/10/30 01:38:28;;;;;;;4.70;1.80;;;;;;;13.10;100.00;98949.66;6115995;23;20052;-89
2023/10/30 01:40:55;;;;;;;7.28;1.20;;;;;;;13.10;100.00;98941.66;6140104;23;20128;-87
2023/10/30 01:43:31;;;;;;;2.53;0.95;;;;;;;13.06;100.00;98943.03;6068094;23;20022;-86
2023/10/30 01:45:59;;;;;;;11.70;1.70;;;;;;;13.08;100.00;98941.00;6091408;23;20355;-87
2023/10/30 01:48:28;;;;;;;18.00;3.67;;;;;;;13.11;100.00;98930.00;6116746;23;20080;-88
2023/10/30 01:50:56;;;;;;;7.00;1.33;;;;;;;13.07;100.00;98924.19;6090321;23;20464;-88
2023/10/30 01:53:23;;;;;;;9.15;1.35;;;;;;;13.11;100.00;98938.00;6115862;23;20026;-87
2023/10/30 01:55:51;;;;;;;7.82;1.42;;;;;;;13.10;100.00;98931.00;6092090;23;20021;-87
2023/10/30 01:58:18;;;;;;;5.35;1.40;;;;;;;13.07;100.00;98920.69;6092055;23;20400;-87
2023/10/30 02:00:48;;;;;;;9.15;1.73;;;;;;;13.10;100.00;98929.19;6116021;23;20116;-88
2023/10/30 02:03:15;;;;;;;9.07;1.20;;;;;;;13.10;100.00;98939.00;6115504;23;20025;-86
2023/10/30 02:05:42;;;;;;;5.38;1.20;;;;;;;13.11;100.00;98946.00;6092350;23;20448;-87
2023/10/30 02:08:09;;;;;;;8.10;1.02;;;;;;;13.10;100.00;98937.19;6142234;23;20435;-88
2023/10/30 02:10:36;;;;;;;15.00;1.30;;;;;;;13.09;100.00;98924.03;6115499;23;20029;-87
2023/10/30 02:13:05;;;;;;;3.10;0.73;;;;;;;13.08;100.00;98919.69;6139967;23;20081;-87
2023/10/30 02:15:32;;;;;;;7.10;1.20;;;;;;;13.07;100.00;98915.38;6116026;23;20025;-88
2023/10/30 02:17:58;;;;;;;7.38;1.20;;;;;;;13.06;100.00;98929.72;6091660;23;20032;-88
2023/10/30 02:20:27;;;;;;;8.40;1.25;;;;;;;13.07;100.00;98908.19;6115164;23;20492;-87
2023/10/30 02:22:54;;;;;;;2.95;1.00;;;;;;;13.08;100.00;98912.53;6119727;23;20376;-87
2023/10/30 02:25:24;;;;;;;10.25;1.38;;;;;;;13.09;100.00;98918.69;6120812;23;20526;-88
2023/10/30 02:27:52;;;;;;;6.97;1.10;;;;;;;13.06;100.00;98905.72;6140200;23;20025;-87
2023/10/30 02:30:19;;;;;;;4.95;1.30;;;;;;;13.07;100.00;98918.03;6091658;23;20025;-88
2023/10/30 02:32:47;;;;;;;5.18;1.20;;;;;;;13.04;100.00;98908.53;6090954;23;20025;-87
2023/10/30 02:35:16;;;;;;;8.15;1.27;;;;;;;13.04;100.00;98905.88;6140124;23;20097;-87
2023/10/30 02:37:44;;;;;;;3.90;0.85;;;;;;;13.03;100.00;98904.22;6115794;23;20030;-88
2023/10/30 02:40:12;;;;;;;8.73;1.30;;;;;;;13.06;100.00;98911.88;6115684;23;20356;-86
2023/10/30 02:42:39;;;;;;;2.30;1.02;;;;;;;13.03;100.00;98899.72;6115163;23;20049;-87
2023/10/30 02:45:07;;;;;;;6.97;1.20;;;;;;;13.03;100.00;98905.06;6067222;23;20452;-87
2023/10/30 02:47:34;;;;;;;7.63;1.50;;;;;;;13.05;100.00;98904.88;6139413;23;20041;-88
2023/10/30 02:50:01;;;;;;;6.20;1.23;;;;;;;13.04;100.00;98914.69;6115576;23;20504;-87
2023/10/30 02:52:30;;;;;;;5.72;1.25;;;;;;;13.03;100.00;98896.25;6114969;23;20041;-86
2023/10/30 02:54:57;;;;;;;2.08;0.60;;;;;;;13.02;100.00;98911.38;6115369;23;20025;-88
2023/10/30 02:57:24;;;;;;;3.17;1.27;;;;;;;13.01;100.00;98899.06;6091617;23;20021;-88
2023/10/30 02:59:51;;;;;;;7.25;1.20;;;;;;;13.00;100.00;98904.56;6115255;23;20025;-87
2023/10/30 03:02:18;;;;;;;3.58;1.10;;;;;;;13.01;100.00;98904.41;6092931;23;20080;-87
2023/10/30 03:04:44;;;;;;;4.75;1.25;;;;;;;12.99;100.00;98894.91;6139640;23;20480;-86
2023/10/30 03:07:15;;;;;;;13.00;1.35;;;;;;;13.00;100.00;98893.91;6066707;23;20101;-88
2023/10/30 03:09:42;;;;;;;2.72;0.70;;;;;;;13.01;100.00;98884.91;6138792;23;20356;-86
2023/10/30 03:12:09;;;;;;;13.18;1.08;;;;;;;13.00;100.00;98881.44;6114195;23;20053;-86
2023/10/30 03:14:36;;;;;;;4.97;1.40;;;;;;;12.98;100.00;98896.75;6116072;23;20482;-87
2023/10/30 03:17:03;;;;;;;12.00;1.13;;;;;;;12.98;100.00;98894.09;6114935;23;20419;-87
2023/10/30 03:19:30;;;;;;;7.70;1.15;;;;;;;12.99;100.00;98900.25;6090803;23;20017;-87
2023/10/30 03:21:57;;;;;;;11.48;0.95;;;;;;;12.98;100.00;98887.94;6141870;23;20027;-88
2023/10/30 03:24:24;;;;;;;7.78;1.20;;;;;;;12.98;100.00;98879.94;6116338;23;20097;-87
2023/10/30 03:26:51;;;;;;;13.25;1.30;;;;;;;12.99;100.00;98870.94;6090832;23;20026;-89
2023/10/30 03:29:18;;;;;;;7.95;0.95;;;;;;;13.00;100.00;98880.56;6142354;23;20056;-86
2023/10/30 03:31:45;;;;;;;5.60;0.93;;;;;;;12.98;100.00;98888.75;6089822;23;20030;-87
2023/10/30 03:34:11;;;;;;;22.25;1.35;;;;;;;12.97;100.00;98871.09;6115611;23;20029;-87
2023/10/30 03:36:38;;;;;;;11.30;1.10;;;;;;;12.97;100.00;98878.25;6115143;23;20439;-86
2023/10/30 03:39:06;;;;;;;4.43;0.75;;;;;;;12.97;100.00;98880.94;6139302;23;20013;-88
2023/10/30 03:41:33;;;;;;;3.30;0.90;;;;;;;12.95;100.00;98873.13;6118899;23;20063;-86
2023/10/30 03:44:00;;;;;;;6.65;1.70;;;;;;;12.96;100.00;98871.28;6119509;23;20471;-88
2023/10/30 03:46:28;;;;;;;8.00;1.25;;;;;;;12.94;100.00;98863.47;6137398;23;20078;-86
2023/10/30 03:48:55;;;;;;;6.05;0.80;;;;;;;12.97;100.00;98875.59;6113959;23;20029;-88
2023/10/30 03:51:25;;;;;;;5.03;1.38;;;;;;;12.95;100.00;98859.81;6091143;23;24243;-87
2023/10/30 03:53:52;;;;;;;6.47;1.00;;;;;;;12.95;100.00;98849.16;6114383;23;20520;-87
2023/10/30 03:56:19;;;;;;;4.45;1.00;;;;;;;12.94;100.00;98842.13;6089791;23;20097;-87
2023/10/30 03:58:46;;;;;;;2.58;0.85;;;;;;;12.93;100.00;98842.34;6091321;23;20022;-86
2023/10/30 04:01:13;;;;;;;4.43;0.82;;;;;;;12.95;100.00;98840.28;6139450;23;20036;-88
2023/10/30 04:03:40;;;;;;;8.13;0.93;;;;;;;12.92;100.00;98838.00;6091231;23;20032;-87
2023/10/30 04:06:07;;;;;;;5.38;0.80;;;;;;;12.92;100.00;98833.47;6114986;23;20026;-87
2023/10/30 04:08:33;;;;;;;7.68;1.00;;;;;;;12.91;100.00;98834.50;6114725;23;20029;-88
2023/10/30 04:11:07;;;;;;;4.20;0.88;;;;;;;12.88;100.00;98836.69;6089998;23;20022;-87
2023/10/30 04:13:34;;;;;;;5.45;0.85;;;;;;;12.90;100.00;98832.00;6114963;23;20025;-86
2023/10/30 04:16:01;;;;;;;3.70;0.70;;;;;;;12.90;100.00;98832.84;6139395;23;20029;-87
2023/10/30 04:18:28;;;;;;;4.97;0.82;;;;;;;12.91;100.00;98845.16;6090827;23;20081;-86
2023/10/30 04:20:55;;;;;;;5.90;1.00;;;;;;;12.89;100.00;98857.00;6114942;23;20035;-87
2023/10/30 04:23:22;;;;;;;3.97;0.85;;;;;;;12.88;100.00;98860.69;6090515;23;20025;-87
2023/10/30 04:25:49;;;;;;;4.45;0.95;;;;;;;12.89;100.00;98865.00;6116280;23;20112;-87
2023/10/30 04:28:16;;;;;;;12.25;1.00;;;;;;;12.89;100.00;98865.81;6137500;23;20396;-90
2023/10/30 04:30:42;;;;;;;20.48;5.60;;;;;;;12.91;100.00;98855.00;6112185;23;20084;-87
2023/10/30 04:33:09;;;;;;;18.60;8.20;;;;;;;12.87;100.00;98846.50;6138523;23;20112;-89
2023/10/30 04:35:36;;;;;;;13.65;4.70;;;;;;;12.89;100.00;98849.00;6138370;23;20025;-88
2023/10/30 04:38:03;;;;;;;8.45;1.70;;;;;;;12.90;100.00;98845.31;6139588;23;20025;-88
2023/10/30 04:40:30;;;;;;;4.45;1.55;;;;;;;12.89;100.00;98846.34;6089394;23;20498;-89
2023/10/30 04:42:56;;;;;;;9.70;1.20;;;;;;;12.88;100.00;98850.84;6114528;23;20203;-88
2023/10/30 04:45:23;;;;;;;1.65;0.80;;;;;;;12.88;100.00;98863.34;6140097;23;20341;-86
2023/10/30 04:47:50;;;;;;;5.75;0.95;;;;;;;12.88;100.00;98861.50;6137117;23;20028;-88
2023/10/30 04:50:17;;;;;;;6.93;0.88;;;;;;;12.88;100.00;98872.16;6114291;23;20428;-88
2023/10/30 04:52:44;;;;;;;4.53;1.02;;;;;;;12.86;100.00;98855.50;6139042;23;20026;-86
2023/10/30 04:55:11;;;;;;;5.15;0.80;;;;;;;12.88;100.00;98861.50;6114984;23;20021;-87
2023/10/30 04:57:37;;;;;;;4.57;0.80;;;;;;;12.87;100.00;98857.16;6142551;23;20029;-88
2023/10/30 05:00:06;;;;;;;3.80;1.30;;;;;;;12.87;100.00;98861.66;6114720;23;20017;-87
2023/10/30 05:02:33;;;;;;;6.70;1.60;;;;;;;12.84;100.00;98856.69;6076865;23;20048;-88
2023/10/30 05:05:01;;;;;;;6.00;1.65;;;;;;;12.85;100.00;98861.84;6101601;23;20044;-88
2023/10/30 05:07:28;;;;;;;6.95;1.65;;;;;;;12.86;100.00;98868.00;6117589;23;20018;-89
2023/10/30 05:09:54;;;;;;;5.15;1.42;;;;;;;12.85;100.00;98858.34;6140007;23;20049;-87
2023/10/30 05:12:21;;;;;;;9.80;1.65;;;;;;;12.84;100.00;98856.69;6091315;23;20364;-87
2023/10/30 05:14:48;;;;;;;5.15;1.30;;;;;;;12.85;100.00;98864.53;6117161;23;20040;-87
2023/10/30 05:17:15;;;;;;;6.93;1.60;;;;;;;12.85;100.00;98851.19;6114132;23;20021;-87
2023/10/30 05:19:42;;;;;;;5.47;1.52;;;;;;;12.86;100.00;98857.34;6143690;23;20624;-87
2023/10/30 05:22:09;;;;;;;5.45;1.45;;;;;;;12.85;100.00;98867.19;6116570;23;20026;-88
2023/10/30 05:24:36;;;;;;;11.23;2.20;;;;;;;12.85;100.00;98880.50;6115662;23;20029;-88
2023/10/30 05:27:03;;;;;;;17.98;2.05;;;;;;;12.83;100.00;98866.53;6141382;23;20021;-86
2023/10/30 05:29:30;;;;;;;9.85;2.05;;;;;;;12.84;100.00;98864.69;6140601;23;20036;-88
2023/10/30 05:31:57;;;;;;;7.63;1.83;;;;;;;12.82;100.00;98864.84;6140442;23;20104;-88
2023/10/30 05:34:26;;;;;;;4.05;1.40;;;;;;;12.85;100.00;98863.66;6117393;23;20029;-88
2023/10/30 05:36:53;;;;;;;6.28;1.45;;;;;;;12.83;100.00;98855.88;6117661;23;20044;-88
2023/10/30 05:39:20;;;;;;;4.63;1.20;;;;;;;12.79;100.00;98842.03;6116892;23;20116;-90
2023/10/30 05:41:47;;;;;;;6.68;2.03;;;;;;;12.84;100.00;98838.03;6091447;23;20057;-88
2023/10/30 05:44:15;;;;;;;3.90;1.67;;;;;;;12.81;100.00;98841.88;6099754;23;20025;-89
2023/10/30 05:46:42;;;;;;;6.05;1.75;;;;;;;12.79;100.00;98834.06;6139476;23;20044;-88
2023/10/30 05:49:09;;;;;;;3.15;1.70;;;;;;;12.76;100.00;98834.41;6114711;23;20025;-88
2023/10/30 05:51:36;;;;;;;3.30;1.17;;;;;;;12.76;100.00;98825.59;6116383;23;20376;-89
2023/10/30 05:54:02;;;;;;;6.28;2.08;;;;;;;12.74;100.00;98817.75;6115972;23;20100;-89
2023/10/30 05:56:29;;;;;;;6.15;2.90;;;;;;;12.74;100.00;98823.09;6116676;23;20036;-85
2023/10/30 05:58:57;;;;;;;4.03;2.00;;;;;;;12.75;100.00;98830.09;6147147;23;20100;-89
2023/10/30 06:01:24;;;;;;;7.50;2.40;;;;;;;12.75;100.00;98818.63;6092055;23;20492;-89
2023/10/30 06:03:50;;;;;;;3.83;2.10;;;;;;;12.75;100.00;98816.78;6093145;23;20488;-89
2023/10/30 06:06:17;;;;;;;4.40;1.73;;;;;;;12.76;100.00;98823.75;6096023;23;20044;-88
2023/10/30 06:08:44;;;;;;;9.10;1.58;;;;;;;12.74;100.00;98807.09;6117719;23;20096;-89
2023/10/30 06:11:11;;;;;;;8.32;1.83;;;;;;;12.78;100.00;98836.91;6116545;23;20088;-89
2023/10/30 06:13:38;;;;;;;7.22;2.15;;;;;;;12.78;100.00;98853.72;6091938;23;20021;-88
2023/10/30 06:16:05;;;;;;;8.05;2.63;;;;;;;12.79;100.00;98858.03;6116768;23;20029;-89
2023/10/30 06:18:31;;;;;;;13.40;2.45;;;;;;;12.77;100.00;98844.06;6140676;23;20040;-88
2023/10/30 06:21:01;;;;;;;6.60;2.33;;;;;;;12.75;100.00;98856.72;6116576;23;20026;-88
2023/10/30 06:23:27;;;;;;;4.72;1.80;;;;;;;12.77;100.00;98888.50;6091684;23;20499;-89
2023/10/30 06:25:54;;;;;;;6.05;2.15;;;;;;;12.79;100.00;98913.97;6092287;23;20353;-89
2023/10/30 06:28:21;;;;;;;5.00;1.58;;;;;;;12.79;100.00;98899.81;6090840;23;20029;-88
2023/10/30 06:30:48;;;;;;;7.85;2.17;;;;;;;12.79;100.00;98892.66;6115370;23;20082;-87
2023/10/30 06:33:15;;;;;;;2.92;1.60;;;;;;;12.75;100.00;98872.72;6121906;23;20024;-89
2023/10/30 06:35:42;;;;;;;5.10;2.00;;;;;;;12.74;100.00;98867.56;6140190;23;20076;-89
2023/10/30 06:38:09;;;;;;;11.13;3.92;;;;;;;12.73;100.00;98842.75;6091492;23;20453;-90
2023/10/30 06:40:36;;;;;;;9.32;2.95;;;;;;;12.71;100.00;98871.41;6092644;23;20021;-88
2023/10/30 06:43:02;;;;;;;8.93;2.78;;;;;;;12.71;100.00;98870.56;6120924;23;20025;-89
2023/10/30 06:45:29;;;;;;;10.88;3.42;;;;;;;12.73;100.00;98871.22;6093222;23;20100;-89
2023/10/30 06:47:56;;;;;;;9.02;3.42;;;;;;;12.67;100.00;98878.09;6140120;23;20088;-89
2023/10/30 06:50:23;;;;;;;10.93;3.95;;;;;;;12.69;100.00;98873.41;6139256;23;20048;-88
2023/10/30 06:52:50;;;;;;;10.88;3.25;;;;;;;12.69;100.00;98880.56;6091839;23;20539;-90
2023/10/30 06:55:17;;;;;;;9.05;3.35;;;;;;;12.72;100.00;98897.03;6140210;23;20045;-88
2023/10/30 06:57:43;;;;;;;61.45;23.95;;;;;;;12.71;100.00;98914.00;6115559;23;20084;-88
2023/10/30 07:00:11;;;;;;;29.08;11.18;;;;;;;12.73;100.00;98905.84;6116175;23;20076;-89
2023/10/30 07:02:40;;;;;;;7.82;4.45;;;;;;;12.72;100.00;98889.06;6115608;23;20424;-87
2023/10/30 07:05:07;;;;;;;8.65;4.50;;;;;;;12.74;100.00;98891.53;6142400;23;20029;-89
2023/10/30 07:07:34;;;;;;;20.58;8.50;;;;;;;12.78;100.00;98892.84;6115634;23;20104;-88
2023/10/30 07:10:01;;;;;;;30.63;10.18;;;;;;;12.79;100.00;98884.66;6116106;23;20076;-88
2023/10/30 07:12:28;;;;;;;15.00;5.68;;;;;;;12.84;100.00;98870.00;6141335;23;20030;-88
2023/10/30 07:14:54;;;;;;;7.07;3.50;;;;;;;12.87;100.00;98851.00;6142604;23;20031;-88
2023/10/30 07:17:22;;;;;;;11.00;3.83;;;;;;;12.86;100.00;98852.84;6115878;23;20037;-91
2023/10/30 07:19:50;;;;;;;6.35;2.70;;;;;;;12.92;100.00;98860.13;6115324;23;20025;-90
2023/10/30 07:22:17;;;;;;;10.35;3.00;;;;;;;12.95;100.00;98869.59;6115556;23;20073;-89
2023/10/30 07:24:44;;;;;;;11.20;6.18;;;;;;;12.98;100.00;98856.78;6115794;23;20368;-89
2023/10/30 07:27:11;;;;;;;10.45;3.42;;;;;;;12.98;100.00;98845.31;6115380;23;20025;-91
2023/10/30 07:29:38;;;;;;;7.45;4.05;;;;;;;12.99;100.00;98846.94;6090850;23;21433;-90
2023/10/30 07:32:05;;;;;;;9.60;4.55;;;;;;;12.97;100.00;98849.78;6115665;23;20056;-89
2023/10/30 07:34:32;;;;;;;8.75;4.07;;;;;;;13.00;100.00;98862.78;6091003;23;20076;-87
2023/10/30 07:36:59;;;;;;;5.32;3.60;;;;;;;13.06;100.00;98858.56;6146437;23;20048;-90
2023/10/30 07:39:26;;;;;;;7.95;2.75;;;;;;;13.09;100.00;98857.38;6139566;23;20021;-90
2023/10/30 07:41:53;;;;;;;9.20;2.60;;;;;;;13.09;100.00;98844.88;6114999;23;20032;-88
2023/10/30 07:44:21;;;;;;;6.40;2.13;;;;;;;13.11;100.00;98852.72;6141694;23;20468;-89
2023/10/30 07:46:47;;;;;;;5.28;1.92;;;;;;;13.10;100.00;98853.72;6115872;23;20381;-88
2023/10/30 07:49:14;;;;;;;4.43;1.88;;;;;;;13.10;100.00;98856.38;6091244;23;20414;-89
2023/10/30 07:51:41;;;;;;;9.05;2.40;;;;;;;13.12;100.00;98852.53;6105317;23;20498;-89
2023/10/30 07:54:08;;;;;;;9.82;2.20;;;;;;;13.17;100.00;98866.16;6139992;23;20027;-90
2023/10/30 07:56:35;;;;;;;7.15;2.42;;;;;;;13.18;100.00;98854.50;6115580;23;20027;-89
2023/10/30 07:59:05;;;;;;;2.58;1.92;;;;;;;13.18;100.00;98843.84;6115444;23;20025;-89
2023/10/30 08:01:32;;;;;;;5.13;2.42;;;;;;;13.23;100.00;98854.81;6139505;23;20025;-89
2023/10/30 08:03:59;;;;;;;7.20;1.70;;;;;;;13.20;100.00;98854.31;6139753;23;20021;-90
2023/10/30 08:06:26;;;;;;;8.57;2.10;;;;;;;13.19;100.00;98850.81;6115147;23;20025;-90
2023/10/30 08:08:53;;;;;;;11.32;2.17;;;;;;;13.20;100.00;98847.16;6139780;23;20033;-88
2023/10/30 08:11:20;;;;;;;5.82;2.05;;;;;;;13.22;100.00;98849.63;6114595;23;20029;-88
2023/10/30 08:13:47;;;;;;;10.80;2.60;;;;;;;13.21;100.00;98838.16;6114974;23;20467;-90
2023/10/30 08:16:14;;;;;;;6.10;2.33;;;;;;;13.23;100.00;98843.31;6091623;23;20294;-90
2023/10/30 08:18:41;;;;;;;3.70;1.50;;;;;;;13.25;100.00;98834.13;6090779;23;20079;-89
2023/10/30 08:21:08;;;;;;;11.07;1.85;;;;;;;13.26;100.00;98824.28;6115151;23;20041;-89
2023/10/30 08:23:36;;;;;;;4.72;2.10;;;;;;;13.27;100.00;98825.16;6140304;23;20080;-91
2023/10/30 08:26:05;;;;;;;6.35;1.95;;;;;;;13.30;100.00;98824.78;6143050;23;20110;-89
2023/10/30 08:28:33;;;;;;;2.70;1.83;;;;;;;13.34;100.00;98823.44;6091593;23;20124;-89
2023/10/30 08:30:59;;;;;;;3.75;1.70;;;;;;;13.33;100.00;98817.28;6118569;23;20072;-88
2023/10/30 08:33:26;;;;;;;3.72;1.60;;;;;;;13.38;100.00;98824.72;6066407;23;20104;-90
2023/10/30 08:35:53;;;;;;;9.75;2.30;;;;;;;13.40;100.00;98828.03;6089347;23;20491;-90
2023/10/30 08:38:20;;;;;;;4.70;1.92;;;;;;;13.41;100.00;98824.38;6138597;23;20029;-91
2023/10/30 08:40:47;;;;;;;3.53;1.85;;;;;;;13.45;100.00;98809.66;6115506;23;20029;-89
2023/10/30 08:43:14;;;;;;;3.70;1.50;;;;;;;13.47;100.00;98813.00;6091887;23;20433;-90
2023/10/30 08:45:41;;;;;;;5.05;2.50;;;;;;;13.51;100.00;98818.78;6116627;23;20095;-90
2023/10/30 08:48:11;;;;;;;5.57;1.80;;;;;;;13.53;100.00;98822.09;6067904;23;20037;-89
2023/10/30 08:50:46;;;;;;;3.47;1.58;;;;;;;13.60;100.00;98823.06;6116888;23;20507;-88
2023/10/30 08:53:12;;;;;;;3.63;1.55;;;;;;;13.58;100.00;98822.41;6092719;23;20104;-90
2023/10/30 08:55:41;;;;;;;5.35;1.88;;;;;;;13.57;100.00;98829.56;6121232;23;20030;-90
2023/10/30 08:58:07;;;;;;;5.03;2.45;;;;;;;13.56;100.00;98846.59;6115960;23;20029;-88
2023/10/30 09:00:35;;;;;;;4.65;1.70;;;;;;;13.56;100.00;98843.06;6140856;23;20400;-89
2023/10/30 09:03:03;;;;;;;11.13;2.10;;;;;;;13.60;100.00;98839.06;6140019;23;20069;-89
2023/10/30 09:05:30;;;;;;;3.15;1.20;;;;;;;13.57;100.00;98834.91;6116639;23;20032;-90
2023/10/30 09:07:57;;;;;;;10.00;1.30;;;;;;;13.58;100.00;98833.06;6091309;23;20025;-89
2023/10/30 09:10:28;;;;;;;4.28;1.20;;;;;;;13.62;100.00;98815.72;6092083;23;20095;-89
2023/10/30 09:12:55;;;;;;;4.25;1.20;;;;;;;13.60;100.00;98818.53;6140042;23;20041;-89
2023/10/30 09:15:22;;;;;;;6.03;1.38;;;;;;;13.61;100.00;98803.34;6115608;23;20444;-90
2023/10/30 09:17:49;;;;;;;5.75;1.17;;;;;;;13.60;100.00;98799.88;6091264;23;20029;-89
2023/10/30 09:20:16;;;;;;;2.35;1.10;;;;;;;13.63;100.00;98801.34;6067345;23;20021;-90
2023/10/30 09:22:43;;;;;;;2.65;1.50;;;;;;;13.65;100.00;98797.50;6092593;23;20028;-91
2023/10/30 09:25:10;;;;;;;3.88;1.50;;;;;;;13.61;100.00;98804.22;6094247;23;20029;-90
2023/10/30 09:27:38;;;;;;;2.63;1.27;;;;;;;13.65;100.00;98800.16;6092731;23;20029;-89
2023/10/30 09:30:06;;;;;;;5.60;1.70;;;;;;;13.71;100.00;98801.25;6116200;23;20021;-90
2023/10/30 09:32:33;;;;;;;6.35;1.42;;;;;;;13.72;100.00;98794.94;6091172;23;20025;-88
2023/10/30 09:35:00;;;;;;;5.07;1.30;;;;;;;13.76;100.00;98795.38;6092391;23;20026;-88
2023/10/30 09:37:27;;;;;;;3.53;1.15;;;;;;;13.79;100.00;98803.03;6116029;23;20022;-88
2023/10/30 09:39:54;;;;;;;2.55;1.42;;;;;;;13.79;100.00;98793.19;6117341;23;20033;-90
2023/10/30 09:42:21;;;;;;;3.78;1.27;;;;;;;13.81;100.00;98801.84;6118151;23;20480;-89
2023/10/30 09:44:48;;;;;;;4.75;2.08;;;;;;;13.84;100.00;98788.16;6119769;23;20103;-89
2023/10/30 09:47:16;;;;;;;4.95;1.40;;;;;;;13.89;100.00;98792.91;6093143;23;20104;-89
2023/10/30 09:49:43;;;;;;;4.45;1.45;;;;;;;13.89;100.00;98796.44;6092838;23;20029;-90
2023/10/30 09:52:11;;;;;;;2.75;1.20;;;;;;;13.90;100.00;98794.59;6116970;23;20060;-88
2023/10/30 09:54:38;;;;;;;6.95;1.70;;;;;;;13.92;100.00;98792.56;6092068;23;20029;-89
2023/10/30 09:57:06;;;;;;;2.63;1.30;;;;;;;13.93;100.00;98785.38;6141490;23;20360;-89
2023/10/30 09:59:33;;;;;;;6.00;1.70;;;;;;;13.97;100.00;98789.34;6141427;23;20092;-90
2023/10/30 10:02:00;;;;;;;5.05;1.77;;;;;;;13.98;100.00;98783.00;6116523;23;20021;-89
2023/10/30 10:04:27;;;;;;;5.00;1.58;;;;;;;14.00;100.00;98775.66;6092521;23;20344;-89
2023/10/30 10:06:54;;;;;;;4.30;1.33;;;;;;;14.01;100.00;98759.44;6068766;23;20084;-89
2023/10/30 10:09:21;;;;;;;2.25;1.15;;;;;;;14.02;100.00;98758.44;6116499;23;20026;-90
2023/10/30 10:11:48;;;;;;;7.00;1.33;;;;;;;14.05;100.00;98752.72;6117128;23;20033;-88
2023/10/30 10:14:15;;;;;;;11.45;1.70;;;;;;;14.13;100.00;98753.66;6140652;23;20092;-88
2023/10/30 10:16:42;;;;;;;3.45;1.08;;;;;;;14.11;100.00;98738.63;6115903;23;20021;-89
2023/10/30 10:19:24;;;;;;;4.53;1.20;;;;;;;14.13;100.00;98738.44;6145694;23;20017;-89
2023/10/30 10:21:51;;;;;;;3.60;1.40;;;;;;;14.21;100.00;98745.53;6092753;23;21857;-90
2023/10/30 10:24:28;;;;;;;4.07;1.20;;;;;;;14.18;100.00;98737.91;6115635;23;20025;-90
2023/10/30 10:27:03;;;;;;;3.35;1.58;;;;;;;14.19;100.00;98726.19;6116108;23;20036;-88
2023/10/30 10:29:31;;;;;;;5.18;1.45;;;;;;;14.28;100.00;98725.09;6068769;23;20031;-88
2023/10/30 10:31:59;;;;;;;2.97;0.98;;;;;;;14.26;100.00;98721.78;6091928;23;20049;-90
2023/10/30 10:34:32;;;;;;;7.63;2.78;;;;;;;14.28;100.00;98715.22;6092040;23;20388;-90
2023/10/30 10:37:01;;;;;;;3.42;1.00;;;;;;;14.30;100.00;98710.53;6092388;23;20104;-90
2023/10/30 10:39:46;;;;;;;1.73;0.80;;;;;;;14.33;100.00;98714.66;6092349;23;20018;-88
2023/10/30 10:42:21;;;;;;;3.83;0.90;;;;;;;14.39;100.00;98694.41;6146527;23;20375;-88
2023/10/30 10:44:49;;;;;;;4.20;1.45;;;;;;;14.45;100.00;98688.28;6116151;23;20348;-90
2023/10/30 10:47:16;;;;;;;3.25;0.70;;;;;;;14.46;100.00;98685.44;6115882;23;20205;-89
2023/10/30 10:49:43;;;;;;;4.20;0.65;;;;;;;14.48;100.00;98677.25;6092274;23;20460;-90
2023/10/30 10:52:12;;;;;;;2.70;0.60;;;;;;;14.47;100.00;98665.72;6115554;23;20029;-88
2023/10/30 10:55:04;;;;;;;2.55;0.68;;;;;;;14.46;100.00;98663.25;6142420;23;20574;-88
2023/10/30 10:57:42;;;;;;;1.00;0.50;;;;;;;14.46;100.00;98658.72;6116202;23;20452;-89
2023/10/30 11:00:11;;;;;;;1.48;0.68;;;;;;;14.53;100.00;98664.19;6067338;23;20026;-87
2023/10/30 11:02:39;;;;;;;1.90;0.65;;;;;;;14.54;100.00;98650.63;6139324;23;20064;-86
2023/10/30 11:05:07;;;;;;;1.58;0.63;;;;;;;14.54;100.00;98649.78;6140454;23;20024;-90
2023/10/30 11:07:47;;;;;;;1.77;0.60;;;;;;;14.51;100.00;98650.97;6091289;23;20325;-88
2023/10/30 11:10:22;;;;;;;3.45;0.55;;;;;;;14.49;100.00;98639.66;6115526;23;20028;-88
2023/10/30 11:13:10;;;;;;;1.92;0.60;;;;;;;14.48;100.00;98632.66;6144138;23;20068;-90
2023/10/30 11:15:45;;;;;;;1.05;0.60;;;;;;;14.51;100.00;98620.78;6114896;23;20032;-87
2023/10/30 11:18:16;;;;;;;2.90;0.70;;;;;;;14.51;100.00;98613.56;6067698;23;20503;-89
2023/10/30 11:20:44;;;;;;;4.40;0.98;;;;;;;14.51;100.00;98615.44;6091605;23;20036;-88
2023/10/30 11:23:12;;;;;;;2.72;0.82;;;;;;;14.54;100.00;98610.56;6090700;23;20095;-90
2023/10/30 11:25:39;;;;;;;1.48;0.63;;;;;;;14.56;100.00;98609.56;6116085;23;20029;-89